sensor_id;sensor_type;location;lat;lon;timestamp;temperature;humidity
63371;DHT22;49504;48.336;14.472;2022-12-29T05:31:33;26.10;39.70
63371;DHT22;49504;48.336;14.472;2022-12-29T05:36:34;26.20;40.50
63371;DHT22;49504;48.336;14.472;2022-12-29T05:41:35;26.30;40.20
63371;DHT22;49504;48.336;14.472;2022-12-29T05:46:38;26.30;39.80
63371;DHT22;49504;48.336;14.472;2022-12-29T05:51:39;26.30;39.80
63371;DHT22;49504;48.336;14.472;2022-12-29T05:56:40;26.30;39.70
63371;DHT22;49504;48.336;14.472;2022-12-29T06:01:43;26.30;39.60
63371;DHT22;49504;48.336;14.472;2022-12-29T06:06:44;26.20;39.40
63371;DHT22;49504;48.336;14.472;2022-12-29T06:11:45;26.20;39.50
63371;DHT22;49504;48.336;14.472;2022-12-29T06:16:47;26.20;39.50
63371;DHT22;49504;48.336;14.472;2022-12-29T06:21:48;26.20;39.50
63371;DHT22;49504;48.336;14.472;2022-12-29T06:26:49;26.20;39.60
63371;DHT22;49504;48.336;14.472;2022-12-29T06:31:52;26.20;39.60
63371;DHT22;49504;48.336;14.472;2022-12-29T06:36:53;26.20;39.70
63371;DHT22;49504;48.336;14.472;2022-12-29T06:41:54;26.20;40.10
63371;DHT22;49504;48.336;14.472;2022-12-29T06:46:57;26.20;39.60
63371;DHT22;49504;48.336;14.472;2022-12-29T06:51:58;26.10;40.00
63371;DHT22;49504;48.336;14.472;2022-12-29T06:56:59;26.20;39.90
63371;DHT22;49504;48.336;14.472;2022-12-29T07:02:02;26.20;39.80
63371;DHT22;49504;48.336;14.472;2022-12-29T07:07:03;26.20;39.80
63371;DHT22;49504;48.336;14.472;2022-12-29T07:12:05;26.20;40.10
63371;DHT22;49504;48.336;14.472;2022-12-29T07:17:08;26.10;39.80
63371;DHT22;49504;48.336;14.472;2022-12-29T07:22:10;26.20;39.80
63371;DHT22;49504;48.336;14.472;2022-12-29T07:27:11;26.20;39.80
63371;DHT22;49504;48.336;14.472;2022-12-29T07:32:13;26.20;39.80
63371;DHT22;49504;48.336;14.472;2022-12-29T07:37:14;26.20;39.70
63371;DHT22;49504;48.336;14.472;2022-12-29T07:42:16;26.20;40.00
63371;DHT22;49504;48.336;14.472;2022-12-29T07:47:18;26.20;39.90
63371;DHT22;49504;48.336;14.472;2022-12-29T07:52:20;26.20;39.50
63371;DHT22;49504;48.336;14.472;2022-12-29T07:57:21;26.20;39.40
63371;DHT22;49504;48.336;14.472;2022-12-29T08:02:23;26.20;39.50
63371;DHT22;49504;48.336;14.472;2022-12-29T08:07:24;26.20;40.30
63371;DHT22;49504;48.336;14.472;2022-12-29T08:12:28;26.20;39.80
63371;DHT22;49504;48.336;14.472;2022-12-29T08:17:31;26.20;39.80
63371;DHT22;49504;48.336;14.472;2022-12-29T08:22:32;26.20;39.60
63371;DHT22;49504;48.336;14.472;2022-12-29T08:27:33;26.10;39.60
63371;DHT22;49504;48.336;14.472;2022-12-29T08:32:35;26.20;39.70
63371;DHT22;49504;48.336;14.472;2022-12-29T08:37:36;26.20;39.50
63371;DHT22;49504;48.336;14.472;2022-12-29T08:42:37;26.20;39.10
63371;DHT22;49504;48.336;14.472;2022-12-29T08:47:40;26.20;39.30
63371;DHT22;49504;48.336;14.472;2022-12-29T08:52:41;26.20;39.20
63371;DHT22;49504;48.336;14.472;2022-12-29T08:57:42;26.20;39.20
63371;DHT22;49504;48.336;14.472;2022-12-29T09:02:44;26.20;39.10
63371;DHT22;49504;48.336;14.472;2022-12-29T09:07:45;26.20;39.10
63371;DHT22;49504;48.336;14.472;2022-12-29T09:12:46;26.10;39.00
63371;DHT22;49504;48.336;14.472;2022-12-29T09:17:49;26.20;39.20
63371;DHT22;49504;48.336;14.472;2022-12-29T09:22:50;26.20;39.10
63371;DHT22;49504;48.336;14.472;2022-12-29T09:27:51;26.20;39.30
63371;DHT22;49504;48.336;14.472;2022-12-29T09:32:53;26.20;39.20
63371;DHT22;49504;48.336;14.472;2022-12-29T09:37:55;26.10;38.90
63371;DHT22;49504;48.336;14.472;2022-12-29T09:43:13;26.20;39.10
63371;DHT22;49504;48.336;14.472;2022-12-29T09:48:30;26.20;39.10
63371;DHT22;49504;48.336;14.472;2022-12-29T09:53:37;26.30;39.30
63371;DHT22;49504;48.336;14.472;2022-12-29T09:58:42;26.50;39.30
63371;DHT22;49504;48.336;14.472;2022-12-29T10:03:49;26.80;39.70
63371;DHT22;49504;48.336;14.472;2022-12-29T10:08:57;27.00;39.80
63371;DHT22;49504;48.336;14.472;2022-12-29T10:14:13;27.30;40.10
63371;DHT22;49504;48.336;14.472;2022-12-29T10:19:46;27.70;40.30
63371;DHT22;49504;48.336;14.472;2022-12-29T10:24:55;28.00;39.60
63371;DHT22;49504;48.336;14.472;2022-12-29T10:29:58;28.30;38.70
63371;DHT22;49504;48.336;14.472;2022-12-29T10:35:07;28.50;38.50
63371;DHT22;49504;48.336;14.472;2022-12-29T10:40:19;28.70;38.30
63371;DHT22;49504;48.336;14.472;2022-12-29T10:45:27;28.80;37.80
63371;DHT22;49504;48.336;14.472;2022-12-29T10:50:31;28.90;37.40
63371;DHT22;49504;48.336;14.472;2022-12-29T10:55:35;29.00;37.40
63371;DHT22;49504;48.336;14.472;2022-12-29T11:00:37;29.00;37.20
63371;DHT22;49504;48.336;14.472;2022-12-29T11:05:42;28.90;37.20
63371;DHT22;49504;48.336;14.472;2022-12-29T11:10:46;28.80;37.20
63371;DHT22;49504;48.336;14.472;2022-12-29T11:15:58;28.70;37.20
63371;DHT22;49504;48.336;14.472;2022-12-29T11:21:02;28.70;37.40
63371;DHT22;49504;48.336;14.472;2022-12-29T11:26:17;28.60;37.40
63371;DHT22;49504;48.336;14.472;2022-12-29T11:31:22;28.50;37.70
63371;DHT22;49504;48.336;14.472;2022-12-29T11:36:24;28.40;37.70
63371;DHT22;49504;48.336;14.472;2022-12-29T11:41:27;28.30;37.80
63371;DHT22;49504;48.336;14.472;2022-12-29T11:46:31;28.20;37.90
63371;DHT22;49504;48.336;14.472;2022-12-29T11:51:41;28.10;38.00
63371;DHT22;49504;48.336;14.472;2022-12-29T11:56:45;28.00;38.10
63371;DHT22;49504;48.336;14.472;2022-12-29T12:01:47;28.00;38.30
63371;DHT22;49504;48.336;14.472;2022-12-29T12:06:58;27.90;38.30
63371;DHT22;49504;48.336;14.472;2022-12-29T13:00:36;27.30;39.30
63371;DHT22;49504;48.336;14.472;2022-12-29T13:05:50;27.50;39.10
63371;DHT22;49504;48.336;14.472;2022-12-29T13:11:11;27.40;39.10
63371;DHT22;49504;48.336;14.472;2022-12-29T13:16:22;27.40;39.40
63371;DHT22;49504;48.336;14.472;2022-12-29T13:21:37;27.40;39.60
63371;DHT22;49504;48.336;14.472;2022-12-29T13:26:48;27.30;40.70
63371;DHT22;49504;48.336;14.472;2022-12-29T13:31:58;27.30;40.90
63371;DHT22;49504;48.336;14.472;2022-12-29T13:37:15;27.30;40.90
63371;DHT22;49504;48.336;14.472;2022-12-29T13:42:20;27.30;40.70
63371;DHT22;49504;48.336;14.472;2022-12-29T13:47:28;27.20;40.80
63371;DHT22;49504;48.336;14.472;2022-12-29T13:52:37;27.20;40.80
63371;DHT22;49504;48.336;14.472;2022-12-29T13:57:49;27.20;41.00
63371;DHT22;49504;48.336;14.472;2022-12-29T14:03:17;27.20;41.00
63371;DHT22;49504;48.336;14.472;2022-12-29T14:08:24;27.10;40.70
63371;DHT22;49504;48.336;14.472;2022-12-29T14:13:25;27.10;40.70
63371;DHT22;49504;48.336;14.472;2022-12-29T14:18:29;27.10;40.70
63371;DHT22;49504;48.336;14.472;2022-12-29T14:23:37;27.10;40.50
63371;DHT22;49504;48.336;14.472;2022-12-29T14:28:40;27.00;40.40
63371;DHT22;49504;48.336;14.472;2022-12-29T14:39:40;27.00;40.10
63371;DHT22;49504;48.336;14.472;2022-12-29T14:44:47;27.00;40.80
63371;DHT22;49504;48.336;14.472;2022-12-29T14:49:53;27.00;40.90
63371;DHT22;49504;48.336;14.472;2022-12-29T14:54:59;26.90;40.10
63371;DHT22;49504;48.336;14.472;2022-12-29T15:00:34;26.90;40.00
63371;DHT22;49504;48.336;14.472;2022-12-29T15:05:42;26.90;39.90
63371;DHT22;49504;48.336;14.472;2022-12-29T15:10:51;26.90;40.00
63371;DHT22;49504;48.336;14.472;2022-12-29T15:15:54;26.90;39.60
63371;DHT22;49504;48.336;14.472;2022-12-29T15:21:00;26.80;39.70
63371;DHT22;49504;48.336;14.472;2022-12-29T15:26:04;26.80;39.30
63371;DHT22;49504;48.336;14.472;2022-12-29T15:31:11;26.80;39.20
63371;DHT22;49504;48.336;14.472;2022-12-29T15:36:20;26.70;38.50
63371;DHT22;49504;48.336;14.472;2022-12-29T15:41:30;26.80;39.20
63371;DHT22;49504;48.336;14.472;2022-12-29T15:46:35;26.70;38.90
63371;DHT22;49504;48.336;14.472;2022-12-29T15:51:38;26.70;38.40
63371;DHT22;49504;48.336;14.472;2022-12-29T15:56:40;26.60;38.40
63371;DHT22;49504;48.336;14.472;2022-12-29T16:01:42;26.70;38.80
63371;DHT22;49504;48.336;14.472;2022-12-29T16:06:55;26.70;38.70
63371;DHT22;49504;48.336;14.472;2022-12-29T16:11:59;26.60;38.80
63371;DHT22;49504;48.336;14.472;2022-12-29T16:17:02;26.60;39.50
63371;DHT22;49504;48.336;14.472;2022-12-29T16:22:11;26.60;40.40
63371;DHT22;49504;48.336;14.472;2022-12-29T16:27:21;26.60;40.30
63371;DHT22;49504;48.336;14.472;2022-12-29T16:32:25;26.60;40.00
63371;DHT22;49504;48.336;14.472;2022-12-29T16:37:31;26.60;39.80
63371;DHT22;49504;48.336;14.472;2022-12-29T16:42:34;26.60;39.70
63371;DHT22;49504;48.336;14.472;2022-12-29T16:47:35;26.60;39.50
63371;DHT22;49504;48.336;14.472;2022-12-29T16:52:38;26.60;39.70
63371;DHT22;49504;48.336;14.472;2022-12-29T16:57:42;26.60;39.50
63371;DHT22;49504;48.336;14.472;2022-12-29T17:02:44;26.60;39.40
63371;DHT22;49504;48.336;14.472;2022-12-29T17:07:47;26.60;39.40
63371;DHT22;49504;48.336;14.472;2022-12-29T17:12:48;26.60;39.70
63371;DHT22;49504;48.336;14.472;2022-12-29T17:17:51;26.60;39.50
63371;DHT22;49504;48.336;14.472;2022-12-29T17:22:56;26.60;39.50
63371;DHT22;49504;48.336;14.472;2022-12-29T17:27:59;26.60;39.60
63371;DHT22;49504;48.336;14.472;2022-12-29T17:33:04;26.60;39.30
63371;DHT22;49504;48.336;14.472;2022-12-29T17:38:16;26.60;39.40
63371;DHT22;49504;48.336;14.472;2022-12-29T17:43:19;26.60;39.50
63371;DHT22;49504;48.336;14.472;2022-12-29T17:48:20;26.60;39.60
63371;DHT22;49504;48.336;14.472;2022-12-29T17:53:25;26.60;39.70
63371;DHT22;49504;48.336;14.472;2022-12-29T17:58:29;26.60;39.60
63371;DHT22;49504;48.336;14.472;2022-12-29T18:03:33;26.50;39.50
63371;DHT22;49504;48.336;14.472;2022-12-29T18:08:38;26.60;39.60
63371;DHT22;49504;48.336;14.472;2022-12-29T18:13:39;26.50;39.50
63371;DHT22;49504;48.336;14.472;2022-12-29T18:18:40;26.60;39.60
63371;DHT22;49504;48.336;14.472;2022-12-29T18:23:43;26.60;39.60
63371;DHT22;49504;48.336;14.472;2022-12-29T18:28:44;26.50;39.70
63371;DHT22;49504;48.336;14.472;2022-12-29T18:33:46;26.60;39.70
63371;DHT22;49504;48.336;14.472;2022-12-29T18:38:49;26.60;39.80
63371;DHT22;49504;48.336;14.472;2022-12-29T18:43:50;26.50;39.70
63371;DHT22;49504;48.336;14.472;2022-12-29T18:48:52;26.50;39.70
63371;DHT22;49504;48.336;14.472;2022-12-29T18:53:54;26.60;39.80
63371;DHT22;49504;48.336;14.472;2022-12-29T18:58:55;26.50;39.80
63371;DHT22;49504;48.336;14.472;2022-12-29T19:03:57;26.60;39.90
63371;DHT22;49504;48.336;14.472;2022-12-29T19:08:59;26.60;39.70
63371;DHT22;49504;48.336;14.472;2022-12-29T19:14:00;26.50;39.70
63371;DHT22;49504;48.336;14.472;2022-12-29T19:19:01;26.50;39.70
63371;DHT22;49504;48.336;14.472;2022-12-29T19:24:03;26.60;39.80
63371;DHT22;49504;48.336;14.472;2022-12-29T19:29:06;26.50;39.80
63371;DHT22;49504;48.336;14.472;2022-12-29T19:34:09;26.50;39.70
63371;DHT22;49504;48.336;14.472;2022-12-29T19:39:14;26.50;39.80
63371;DHT22;49504;48.336;14.472;2022-12-29T19:44:15;26.50;39.70
63371;DHT22;49504;48.336;14.472;2022-12-29T19:49:16;26.50;39.80
63371;DHT22;49504;48.336;14.472;2022-12-29T19:54:18;26.50;39.80
63371;DHT22;49504;48.336;14.472;2022-12-29T19:59:19;26.50;39.80
63371;DHT22;49504;48.336;14.472;2022-12-29T20:04:20;26.50;39.80
63371;DHT22;49504;48.336;14.472;2022-12-29T20:09:22;26.50;39.70
63371;DHT22;49504;48.336;14.472;2022-12-29T20:14:23;26.50;39.80
63371;DHT22;49504;48.336;14.472;2022-12-29T20:23:26;26.50;39.20
63371;DHT22;49504;48.336;14.472;2022-12-29T20:28:28;26.50;39.60
63371;DHT22;49504;48.336;14.472;2022-12-29T20:33:30;26.50;39.70
63371;DHT22;49504;48.336;14.472;2022-12-29T20:38:33;26.50;39.70
63371;DHT22;49504;48.336;14.472;2022-12-29T20:43:34;26.50;39.80
63371;DHT22;49504;48.336;14.472;2022-12-29T20:48:35;26.50;39.60
63371;DHT22;49504;48.336;14.472;2022-12-29T20:53:38;26.50;39.50
63371;DHT22;49504;48.336;14.472;2022-12-29T20:58:39;26.50;39.50
63371;DHT22;49504;48.336;14.472;2022-12-29T21:03:40;26.50;39.70
63371;DHT22;49504;48.336;14.472;2022-12-29T21:08:43;26.50;39.70
63371;DHT22;49504;48.336;14.472;2022-12-29T21:13:44;26.50;39.60
63371;DHT22;49504;48.336;14.472;2022-12-29T21:18:44;26.40;39.60
63371;DHT22;49504;48.336;14.472;2022-12-29T21:23:47;26.50;39.70
63371;DHT22;49504;48.336;14.472;2022-12-29T21:28:49;26.50;39.70
63371;DHT22;49504;48.336;14.472;2022-12-29T21:33:50;26.50;39.80
63371;DHT22;49504;48.336;14.472;2022-12-29T21:41:14;26.40;39.00
63371;DHT22;49504;48.336;14.472;2022-12-29T21:46:15;26.50;39.70
63371;DHT22;49504;48.336;14.472;2022-12-29T21:51:16;26.50;39.70
63371;DHT22;49504;48.336;14.472;2022-12-29T21:58:08;26.40;39.10
63371;DHT22;49504;48.336;14.472;2022-12-29T22:03:09;26.50;39.80
63371;DHT22;49504;48.336;14.472;2022-12-29T22:08:10;26.50;39.80
63371;DHT22;49504;48.336;14.472;2022-12-29T22:13:13;26.50;39.80
63371;DHT22;49504;48.336;14.472;2022-12-29T22:18:14;26.50;39.80
63371;DHT22;49504;48.336;14.472;2022-12-29T22:23:15;26.50;40.50
63371;DHT22;49504;48.336;14.472;2022-12-29T22:28:17;26.50;39.80
63371;DHT22;49504;48.336;14.472;2022-12-29T22:33:18;26.40;39.80
63371;DHT22;49504;48.336;14.472;2022-12-29T22:38:19;26.40;39.80
63371;DHT22;49504;48.336;14.472;2022-12-29T22:43:21;26.40;39.80
63371;DHT22;49504;48.336;14.472;2022-12-29T22:48:22;26.40;39.80
63371;DHT22;49504;48.336;14.472;2022-12-29T22:53:23;26.40;39.70
63371;DHT22;49504;48.336;14.472;2022-12-29T22:58:26;26.40;39.70
63371;DHT22;49504;48.336;14.472;2022-12-29T23:03:27;26.40;39.80
63371;DHT22;49504;48.336;14.472;2022-12-29T23:08:31;26.40;39.70
63371;DHT22;49504;48.336;14.472;2022-12-29T23:13:35;26.40;39.70
63371;DHT22;49504;48.336;14.472;2022-12-29T23:18:36;26.40;39.80
63371;DHT22;49504;48.336;14.472;2022-12-29T23:23:37;26.40;39.80
63371;DHT22;49504;48.336;14.472;2022-12-29T23:28:40;26.40;39.80
63371;DHT22;49504;48.336;14.472;2022-12-29T23:38:21;26.40;39.30
63371;DHT22;49504;48.336;14.472;2022-12-29T23:43:22;26.40;39.90
63371;DHT22;49504;48.336;14.472;2022-12-29T23:48:23;26.40;39.80
63371;DHT22;49504;48.336;14.472;2022-12-29T23:53:25;26.40;39.80
63371;DHT22;49504;48.336;14.472;2022-12-29T23:58:29;26.40;39.90
